createdAt,value
2019-06-26T00:00:37.879Z,988.86
2019-06-26T00:01:37.813Z,988.92
2019-06-26T00:02:37.780Z,988.86
2019-06-26T00:03:37.761Z,988.89
2019-06-26T00:04:37.720Z,988.90
2019-06-26T00:05:37.690Z,988.91
2019-06-26T00:06:37.665Z,988.90
2019-06-26T00:07:37.732Z,988.93
2019-06-26T00:08:37.611Z,988.93
2019-06-26T00:09:37.580Z,988.93
2019-06-26T00:10:37.561Z,988.93
2019-06-26T00:11:37.521Z,988.95
2019-06-26T00:12:37.513Z,988.99
2019-06-26T00:13:37.463Z,988.97
2019-06-26T00:14:38.948Z,988.96
2019-06-26T00:15:37.409Z,988.97
2019-06-26T00:16:37.377Z,988.99
2019-06-26T00:17:37.354Z,989.00
2019-06-26T00:18:37.322Z,989.01
2019-06-26T00:19:37.288Z,989.01
2019-06-26T00:20:37.260Z,989.04
2019-06-26T00:21:37.234Z,989.06
2019-06-26T00:22:37.212Z,989.07
2019-06-26T00:23:37.183Z,989.06
2019-06-26T00:24:37.150Z,989.06
2019-06-26T00:25:37.130Z,989.10
2019-06-26T00:26:37.089Z,989.14
2019-06-26T00:27:37.068Z,989.12
2019-06-26T00:28:37.036Z,989.13
2019-06-26T00:29:37.005Z,989.17
2019-06-26T00:30:36.982Z,989.15
2019-06-26T00:31:36.951Z,989.15
2019-06-26T00:32:36.918Z,989.15
2019-06-26T00:33:36.893Z,989.14
2019-06-26T00:34:36.863Z,989.16
2019-06-26T00:35:36.842Z,989.18
2019-06-26T00:36:36.808Z,989.11
2019-06-26T00:37:36.882Z,989.16
2019-06-26T00:38:39.962Z,989.17
2019-06-26T00:39:36.718Z,989.19
2019-06-26T00:40:36.690Z,989.19
2019-06-26T00:41:36.670Z,989.19
2019-06-26T00:42:36.640Z,989.22
2019-06-26T00:43:42.213Z,989.25
2019-06-26T00:44:36.588Z,989.25
2019-06-26T00:45:36.572Z,989.22
2019-06-26T00:46:36.595Z,989.24
2019-06-26T00:47:36.543Z,989.21
2019-06-26T00:48:36.458Z,989.21
2019-06-26T00:49:36.437Z,989.20
2019-06-26T00:50:36.404Z,989.20
2019-06-26T00:51:36.409Z,989.22
2019-06-26T00:52:36.346Z,989.21
2019-06-26T00:53:36.317Z,989.19
2019-06-26T00:54:36.290Z,989.21
2019-06-26T00:55:36.262Z,989.22
2019-06-26T00:56:36.230Z,989.24
2019-06-26T00:57:36.212Z,989.24
2019-06-26T00:58:36.172Z,989.24
2019-06-26T00:59:36.164Z,989.25
2019-06-26T01:00:36.116Z,989.26
2019-06-26T01:01:36.084Z,989.28
2019-06-26T01:02:36.098Z,989.27
2019-06-26T01:03:36.027Z,989.26
2019-06-26T01:04:35.998Z,989.28
2019-06-26T01:05:35.973Z,989.30
2019-06-26T01:06:35.972Z,989.26
2019-06-26T01:07:35.941Z,989.26
2019-06-26T01:08:35.893Z,989.29
2019-06-26T01:09:35.851Z,989.32
2019-06-26T01:10:35.829Z,989.31
2019-06-26T01:11:35.801Z,989.34
2019-06-26T01:12:35.769Z,989.32
2019-06-26T01:13:35.737Z,989.37
2019-06-26T01:14:35.715Z,989.37
2019-06-26T01:15:35.677Z,989.36
2019-06-26T01:16:35.650Z,989.36
2019-06-26T01:17:35.633Z,989.36
2019-06-26T01:18:35.621Z,989.37
2019-06-26T01:19:35.573Z,989.33
2019-06-26T01:20:35.536Z,989.35
2019-06-26T01:21:35.507Z,989.32
2019-06-26T01:22:35.491Z,989.31
2019-06-26T01:23:35.445Z,989.35
2019-06-26T01:24:35.422Z,989.33
2019-06-26T01:25:35.390Z,989.32
2019-06-26T01:26:35.364Z,989.31
2019-06-26T01:27:35.333Z,989.29
2019-06-26T01:28:35.304Z,989.33
2019-06-26T01:29:35.275Z,989.29
2019-06-26T01:30:35.242Z,989.31
2019-06-26T01:31:35.219Z,989.29
2019-06-26T01:32:35.188Z,989.29
2019-06-26T01:33:35.160Z,989.28
2019-06-26T01:34:35.127Z,989.28
2019-06-26T01:35:35.100Z,989.33
2019-06-26T01:36:35.068Z,989.29
2019-06-26T01:37:35.044Z,989.33
2019-06-26T01:38:35.015Z,989.32
2019-06-26T01:39:34.996Z,989.33
2019-06-26T01:40:34.967Z,989.31
2019-06-26T01:41:34.923Z,989.31
2019-06-26T01:42:34.893Z,989.28
2019-06-26T01:43:34.872Z,989.30
2019-06-26T01:44:34.838Z,989.23
2019-06-26T01:45:34.809Z,989.24
2019-06-26T01:46:34.792Z,989.24
2019-06-26T01:47:34.755Z,989.26
2019-06-26T01:48:34.727Z,989.23
2019-06-26T01:49:34.698Z,989.27
2019-06-26T01:50:34.695Z,989.22
2019-06-26T01:51:34.637Z,989.20
2019-06-26T01:52:34.607Z,989.21
2019-06-26T01:53:34.577Z,989.22
2019-06-26T01:54:34.568Z,989.23
2019-06-26T01:55:34.517Z,989.23
2019-06-26T01:56:34.498Z,989.21
2019-06-26T01:57:34.468Z,989.25
2019-06-26T01:58:34.440Z,989.28
2019-06-26T01:59:34.403Z,989.26
2019-06-26T02:00:34.375Z,989.26
2019-06-26T02:01:34.343Z,989.29
2019-06-26T02:02:34.331Z,989.27
2019-06-26T02:03:34.302Z,989.29
2019-06-26T02:04:34.253Z,989.25
2019-06-26T02:05:34.226Z,989.30
2019-06-26T02:06:34.196Z,989.30
2019-06-26T02:07:34.168Z,989.29
2019-06-26T02:08:34.149Z,989.30
2019-06-26T02:09:34.106Z,989.33
2019-06-26T02:10:34.078Z,989.34
2019-06-26T02:11:34.058Z,989.36
2019-06-26T02:12:34.017Z,989.33
2019-06-26T02:13:33.988Z,989.34
2019-06-26T02:14:33.958Z,989.36
2019-06-26T02:15:33.928Z,989.36
2019-06-26T02:16:33.898Z,989.40
2019-06-26T02:17:33.870Z,989.35
2019-06-26T02:18:33.844Z,989.35
2019-06-26T02:19:33.812Z,989.33
2019-06-26T02:20:33.779Z,989.31
2019-06-26T02:21:33.751Z,989.31
2019-06-26T02:22:33.821Z,989.30
2019-06-26T02:23:33.695Z,989.32
2019-06-26T02:24:33.663Z,989.33
2019-06-26T02:25:33.634Z,989.31
2019-06-26T02:26:33.601Z,989.33
2019-06-26T02:27:33.579Z,989.30
2019-06-26T02:28:33.546Z,989.32
2019-06-26T02:29:33.516Z,989.31
2019-06-26T02:30:33.490Z,989.34
2019-06-26T02:31:33.472Z,989.37
2019-06-26T02:32:33.426Z,989.35
2019-06-26T02:33:33.399Z,989.37
2019-06-26T02:34:33.368Z,989.37
2019-06-26T02:35:33.345Z,989.38
2019-06-26T02:36:33.327Z,989.41
2019-06-26T02:37:33.285Z,989.41
2019-06-26T02:38:33.247Z,989.38
2019-06-26T02:39:33.215Z,989.41
2019-06-26T02:40:33.187Z,989.43
2019-06-26T02:41:33.163Z,989.40
2019-06-26T02:42:33.135Z,989.44
2019-06-26T02:43:33.111Z,989.43
2019-06-26T02:44:51.370Z,989.42
2019-06-26T02:45:33.043Z,989.42
2019-06-26T02:46:33.010Z,989.41
2019-06-26T02:47:32.978Z,989.44
2019-06-26T02:48:32.959Z,989.42
2019-06-26T02:49:32.922Z,989.42
2019-06-26T02:50:32.900Z,989.45
2019-06-26T02:51:32.860Z,989.42
2019-06-26T02:52:32.832Z,989.45
2019-06-26T02:53:32.803Z,989.44
2019-06-26T02:54:32.779Z,989.44
2019-06-26T02:55:32.750Z,989.48
2019-06-26T02:56:32.718Z,989.51
2019-06-26T02:57:32.682Z,989.46
2019-06-26T02:58:32.652Z,989.47
2019-06-26T02:59:32.624Z,989.48
2019-06-26T03:00:32.597Z,989.51
2019-06-26T03:01:32.565Z,989.55
2019-06-26T03:02:32.539Z,989.58
2019-06-26T03:03:32.511Z,989.59
2019-06-26T03:04:32.476Z,989.61
2019-06-26T03:05:32.445Z,989.63
2019-06-26T03:06:32.415Z,989.62
2019-06-26T03:07:32.397Z,989.64
2019-06-26T03:08:32.362Z,989.66
2019-06-26T03:09:32.345Z,989.62
2019-06-26T03:10:32.293Z,989.66
2019-06-26T03:11:32.266Z,989.66
2019-06-26T03:12:32.235Z,989.70
2019-06-26T03:13:32.207Z,989.69
2019-06-26T03:14:32.182Z,989.69
2019-06-26T03:15:32.150Z,989.72
2019-06-26T03:16:32.118Z,989.75
2019-06-26T03:17:32.086Z,989.76
2019-06-26T03:18:32.054Z,989.80
2019-06-26T03:19:32.029Z,989.82
2019-06-26T03:20:32.011Z,989.81
2019-06-26T03:36:24.498Z,989.85
2019-06-26T03:37:24.145Z,989.85
2019-06-26T03:38:24.127Z,989.88
2019-06-26T03:39:24.040Z,989.91
2019-06-26T03:40:24.008Z,989.89
2019-06-26T03:41:23.990Z,989.89
2019-06-26T03:42:23.949Z,989.88
2019-06-26T03:43:23.903Z,989.91
2019-06-26T03:44:23.868Z,989.85
2019-06-26T03:45:26.124Z,989.87
2019-06-26T03:46:23.811Z,989.90
2019-06-26T03:47:23.778Z,989.90
2019-06-26T03:48:23.749Z,989.91
2019-06-26T03:49:23.719Z,989.90
2019-06-26T03:50:23.683Z,989.92
2019-06-26T03:51:23.650Z,989.89
2019-06-26T03:52:23.615Z,989.92
2019-06-26T03:53:23.589Z,989.94
2019-06-26T03:54:23.556Z,989.92
2019-06-26T03:55:23.529Z,989.95
2019-06-26T03:56:23.493Z,989.91
2019-06-26T03:57:23.467Z,989.94
2019-06-26T03:58:23.438Z,989.90
2019-06-26T03:59:23.432Z,989.92
2019-06-26T04:00:23.388Z,989.93
2019-06-26T04:01:23.355Z,989.92
2019-06-26T04:02:23.328Z,989.91
2019-06-26T04:03:23.427Z,989.91
2019-06-26T04:04:23.245Z,989.93
2019-06-26T04:05:23.220Z,989.90
2019-06-26T04:06:23.185Z,989.95
2019-06-26T04:07:23.153Z,989.99
2019-06-26T04:08:23.122Z,989.94
2019-06-26T04:09:23.092Z,989.94
2019-06-26T04:10:23.066Z,989.95
2019-06-26T04:11:23.028Z,990.00
2019-06-26T04:12:23.007Z,990.02
2019-06-26T04:13:22.968Z,990.02
2019-06-26T04:14:22.939Z,990.01
2019-06-26T04:15:22.909Z,990.03
2019-06-26T04:16:22.873Z,990.02
2019-06-26T04:17:22.847Z,990.02
2019-06-26T04:18:22.818Z,990.00
2019-06-26T04:19:22.813Z,990.06
2019-06-26T04:20:22.773Z,990.09
2019-06-26T04:21:22.733Z,990.09
2019-06-26T04:22:22.694Z,990.11
2019-06-26T04:23:22.990Z,990.09
2019-06-26T04:24:22.631Z,990.10
2019-06-26T04:25:22.602Z,990.13
2019-06-26T04:26:22.574Z,990.14
2019-06-26T04:27:22.634Z,990.18
2019-06-26T04:28:22.509Z,990.17
2019-06-26T04:29:22.485Z,990.21
2019-06-26T04:30:22.455Z,990.20
2019-06-26T04:31:22.428Z,990.24
2019-06-26T04:32:22.395Z,990.20
2019-06-26T04:33:22.365Z,990.23
2019-06-26T04:34:22.333Z,990.27
2019-06-26T04:35:22.300Z,990.24
2019-06-26T04:36:22.273Z,990.25
2019-06-26T04:37:22.243Z,990.22
2019-06-26T04:38:22.227Z,990.29
2019-06-26T04:39:22.188Z,990.25
2019-06-26T04:40:22.156Z,990.24
2019-06-26T04:41:22.133Z,990.25
2019-06-26T04:42:22.096Z,990.30
2019-06-26T04:43:22.065Z,990.32
2019-06-26T04:44:22.038Z,990.31
2019-06-26T04:45:22.009Z,990.30
2019-06-26T04:46:21.973Z,990.33
2019-06-26T04:47:21.942Z,990.28
2019-06-26T04:48:21.912Z,990.30
2019-06-26T04:49:21.885Z,990.34
2019-06-26T04:50:21.909Z,990.28
2019-06-26T04:51:21.840Z,990.32
2019-06-26T04:52:21.802Z,990.36
2019-06-26T04:53:21.774Z,990.38
2019-06-26T04:54:21.737Z,990.36
2019-06-26T04:55:21.708Z,990.35
2019-06-26T04:56:21.678Z,990.39
2019-06-26T04:57:21.647Z,990.38
2019-06-26T04:58:21.621Z,990.38
2019-06-26T04:59:21.595Z,990.40
2019-06-26T05:00:22.012Z,990.42
2019-06-26T05:01:21.530Z,990.44
2019-06-26T05:02:21.502Z,990.43
2019-06-26T05:03:21.474Z,990.44
2019-06-26T05:04:21.445Z,990.42
2019-06-26T05:05:21.413Z,990.40
2019-06-26T05:06:21.382Z,990.40
2019-06-26T05:07:21.349Z,990.41
2019-06-26T05:08:21.323Z,990.43
2019-06-26T05:09:21.379Z,990.40
2019-06-26T05:10:21.265Z,990.44
2019-06-26T05:11:21.237Z,990.49
2019-06-26T05:12:21.212Z,990.48
2019-06-26T05:13:21.177Z,990.49
2019-06-26T05:14:21.150Z,990.50
2019-06-26T05:15:21.119Z,990.55
2019-06-26T05:16:21.097Z,990.56
2019-06-26T05:17:21.060Z,990.55
2019-06-26T05:18:21.033Z,990.56
2019-06-26T05:19:21.000Z,990.56
2019-06-26T05:20:20.972Z,990.62
2019-06-26T05:21:20.942Z,990.59
2019-06-26T05:22:20.912Z,990.56
2019-06-26T05:23:20.884Z,990.59
2019-06-26T05:24:20.857Z,990.61
2019-06-26T05:25:20.824Z,990.61
2019-06-26T05:26:20.796Z,990.60
2019-06-26T05:27:20.775Z,990.62
2019-06-26T05:28:20.738Z,990.61
2019-06-26T05:29:20.711Z,990.64
2019-06-26T05:30:20.681Z,990.66
2019-06-26T05:31:20.651Z,990.69
2019-06-26T05:32:20.626Z,990.72
2019-06-26T05:33:20.601Z,990.68
2019-06-26T05:34:20.568Z,990.72
2019-06-26T05:35:20.541Z,990.72
2019-06-26T05:36:20.510Z,990.77
2019-06-26T05:37:20.499Z,990.72
2019-06-26T05:38:20.452Z,990.76
2019-06-26T05:39:20.430Z,990.77
2019-06-26T05:40:20.407Z,990.79
2019-06-26T05:41:20.366Z,990.77
2019-06-26T05:42:20.341Z,990.77
2019-06-26T05:43:20.311Z,990.79
2019-06-26T05:44:20.282Z,990.81
2019-06-26T05:45:20.251Z,990.77
2019-06-26T05:46:30.486Z,990.82
2019-06-26T05:47:22.032Z,990.84
2019-06-26T05:48:20.166Z,990.82
2019-06-26T05:49:20.143Z,990.83
2019-06-26T05:50:20.115Z,990.87
2019-06-26T05:51:20.082Z,990.86
2019-06-26T05:52:20.055Z,990.89
2019-06-26T05:53:20.027Z,990.87
2019-06-26T05:54:20.018Z,990.90
2019-06-26T05:55:19.969Z,990.89
2019-06-26T05:56:19.940Z,990.90
2019-06-26T05:57:19.918Z,990.91
2019-06-26T05:58:19.892Z,990.95
2019-06-26T05:59:19.880Z,990.94
2019-06-26T06:00:19.827Z,990.94
2019-06-26T06:01:19.798Z,990.95
2019-06-26T06:02:19.772Z,990.90
2019-06-26T06:03:19.743Z,990.91
2019-06-26T06:04:19.717Z,990.94
2019-06-26T06:05:19.736Z,990.95
2019-06-26T06:06:19.657Z,990.94
2019-06-26T06:07:19.630Z,990.99
2019-06-26T06:08:19.601Z,990.98
2019-06-26T06:09:19.572Z,990.99
2019-06-26T06:10:19.546Z,990.98
2019-06-26T06:11:19.518Z,991.01
2019-06-26T06:12:19.493Z,991.00
2019-06-26T06:13:19.465Z,991.04
2019-06-26T06:14:19.432Z,991.03
2019-06-26T06:15:19.410Z,991.04
2019-06-26T06:16:19.375Z,991.05
2019-06-26T06:17:19.354Z,991.04
2019-06-26T06:18:19.325Z,991.08
2019-06-26T06:19:19.294Z,991.05
2019-06-26T06:20:19.265Z,991.03
2019-06-26T06:21:19.237Z,991.06
2019-06-26T06:22:19.246Z,991.09
2019-06-26T06:23:19.210Z,991.05
2019-06-26T06:24:19.207Z,991.05
2019-06-26T06:25:19.140Z,991.08
2019-06-26T06:26:19.098Z,991.08
2019-06-26T06:27:19.071Z,991.07
2019-06-26T06:28:19.054Z,991.12
2019-06-26T06:29:19.021Z,991.10
2019-06-26T06:30:18.987Z,991.08
2019-06-26T06:31:18.993Z,991.10
2019-06-26T06:32:18.933Z,991.12
2019-06-26T06:33:18.904Z,991.13
2019-06-26T06:34:18.877Z,991.14
2019-06-26T06:35:18.850Z,991.14
2019-06-26T06:36:18.820Z,991.16
2019-06-26T06:37:18.798Z,991.21
2019-06-26T06:38:18.768Z,991.17
2019-06-26T06:39:18.740Z,991.23
2019-06-26T06:40:18.710Z,991.25
2019-06-26T06:41:18.687Z,991.26
2019-06-26T06:42:18.655Z,991.26
2019-06-26T06:43:18.629Z,991.28
2019-06-26T06:44:18.600Z,991.28
2019-06-26T06:45:18.573Z,991.33
2019-06-26T06:46:18.554Z,991.31
2019-06-26T06:47:18.525Z,991.32
2019-06-26T06:48:18.490Z,991.32
2019-06-26T06:49:18.464Z,991.38
2019-06-26T06:50:18.439Z,991.36
2019-06-26T06:51:18.419Z,991.37
2019-06-26T06:52:18.381Z,991.38
2019-06-26T06:53:18.354Z,991.40
2019-06-26T06:54:18.355Z,991.40
2019-06-26T06:55:18.300Z,991.43
2019-06-26T06:56:18.273Z,991.44
2019-06-26T06:57:18.246Z,991.51
2019-06-26T06:58:18.220Z,991.52
2019-06-26T06:59:18.192Z,991.55
2019-06-26T07:00:18.166Z,991.56
2019-06-26T07:01:26.797Z,991.55
2019-06-26T07:03:22.819Z,991.55
2019-06-26T07:04:22.767Z,991.48
2019-06-26T07:05:22.740Z,991.56
2019-06-26T07:06:22.713Z,991.52
2019-06-26T07:07:22.687Z,991.53
2019-06-26T07:08:22.663Z,991.53
2019-06-26T07:09:22.633Z,991.52
2019-06-26T07:10:22.605Z,991.52
2019-06-26T07:11:22.584Z,991.53
2019-06-26T07:12:22.553Z,991.53
2019-06-26T07:13:22.526Z,991.55
2019-06-26T07:14:22.496Z,991.57
2019-06-26T07:15:22.473Z,991.55
2019-06-26T07:16:22.442Z,991.57
2019-06-26T07:17:22.414Z,991.60
2019-06-26T07:18:22.387Z,991.61
2019-06-26T07:19:22.367Z,991.62
2019-06-26T07:20:22.353Z,991.64
2019-06-26T07:21:22.308Z,991.66
2019-06-26T07:22:22.295Z,991.65
2019-06-26T07:23:22.259Z,991.66
2019-06-26T07:24:22.229Z,991.71
2019-06-26T07:25:22.199Z,991.71
2019-06-26T07:26:22.173Z,991.70
2019-06-26T07:27:22.145Z,991.67
2019-06-26T07:28:22.239Z,991.67
2019-06-26T07:29:22.137Z,991.71
2019-06-26T07:30:22.108Z,991.74
2019-06-26T07:31:22.039Z,991.69
2019-06-26T07:32:22.010Z,991.77
2019-06-26T07:33:21.984Z,991.82
2019-06-26T07:34:21.956Z,991.79
2019-06-26T07:35:21.928Z,991.77
2019-06-26T07:36:21.904Z,991.80
2019-06-26T07:37:21.874Z,991.80
2019-06-26T07:38:21.849Z,991.78
2019-06-26T07:39:21.821Z,991.77
2019-06-26T07:40:21.793Z,991.76
2019-06-26T07:41:21.765Z,991.82
2019-06-26T07:42:21.738Z,991.81
2019-06-26T07:43:21.718Z,991.80
2019-06-26T07:44:21.685Z,991.84
2019-06-26T07:45:23.974Z,991.88
2019-06-26T07:46:21.632Z,991.87
2019-06-26T07:47:25.014Z,991.88
2019-06-26T07:48:21.596Z,991.95
2019-06-26T07:49:21.546Z,991.94
2019-06-26T07:50:21.519Z,991.89
2019-06-26T07:51:21.493Z,991.88
2019-06-26T07:52:21.492Z,991.89
2019-06-26T07:53:21.456Z,991.89
2019-06-26T07:54:21.411Z,991.88
2019-06-26T07:55:21.384Z,991.85
2019-06-26T07:56:21.359Z,991.87
2019-06-26T07:57:21.333Z,991.88
2019-06-26T07:58:21.303Z,991.87
2019-06-26T07:59:21.301Z,991.89
2019-06-26T08:00:21.290Z,991.87
2019-06-26T08:01:21.219Z,991.88
2019-06-26T08:02:21.191Z,991.85
2019-06-26T08:03:21.169Z,991.89
2019-06-26T08:04:21.138Z,991.87
2019-06-26T08:05:21.112Z,991.85
2019-06-26T08:06:21.089Z,991.86
2019-06-26T08:07:21.071Z,991.82
2019-06-26T08:08:21.132Z,991.83
2019-06-26T08:09:21.001Z,991.84
2019-06-26T08:10:20.990Z,991.86
2019-06-26T08:11:20.972Z,991.86
2019-06-26T08:12:20.922Z,991.87
2019-06-26T08:13:20.896Z,991.83
2019-06-26T08:14:20.886Z,991.84
2019-06-26T08:15:20.836Z,991.83
2019-06-26T08:16:20.817Z,991.85
2019-06-26T08:17:20.783Z,991.85
2019-06-26T08:18:20.803Z,991.84
2019-06-26T08:19:20.734Z,991.82
2019-06-26T08:20:20.703Z,991.86
2019-06-26T08:21:20.674Z,991.88
2019-06-26T08:22:20.651Z,991.85
2019-06-26T08:23:20.623Z,991.86
2019-06-26T08:24:20.594Z,991.88
2019-06-26T08:25:20.567Z,991.87
2019-06-26T08:26:20.540Z,991.91
2019-06-26T08:27:20.508Z,991.95
2019-06-26T08:28:20.482Z,991.90
2019-06-26T08:29:20.454Z,991.92
2019-06-26T08:30:20.426Z,991.95
2019-06-26T08:31:20.405Z,991.92
2019-06-26T08:32:20.375Z,991.93
2019-06-26T08:33:20.346Z,991.94
2019-06-26T08:34:20.323Z,991.95
2019-06-26T08:35:20.293Z,991.96
2019-06-26T08:36:20.263Z,991.95
2019-06-26T08:37:20.240Z,991.98
2019-06-26T08:38:20.222Z,991.98
2019-06-26T08:39:20.201Z,991.99
2019-06-26T08:40:20.156Z,992.02
2019-06-26T08:41:20.125Z,992.02
2019-06-26T08:42:20.123Z,991.99
2019-06-26T08:43:20.077Z,992.04
2019-06-26T08:44:20.059Z,992.02
2019-06-26T08:45:20.027Z,992.03
2019-06-26T08:46:20.007Z,992.03
2019-06-26T08:47:19.964Z,992.01
2019-06-26T08:48:38.449Z,992.04
2019-06-26T08:49:25.564Z,992.07
2019-06-26T08:50:19.893Z,992.05
2019-06-26T08:51:19.854Z,992.05
2019-06-26T08:52:19.823Z,992.09
2019-06-26T08:53:19.804Z,992.09
2019-06-26T08:54:19.773Z,992.17
2019-06-26T08:55:19.748Z,992.14
2019-06-26T08:56:19.716Z,992.10
2019-06-26T08:57:19.686Z,992.10
2019-06-26T08:58:19.663Z,992.15
2019-06-26T08:59:19.637Z,992.11
2019-06-26T09:00:19.611Z,992.11
2019-06-26T09:01:19.582Z,992.11
2019-06-26T09:02:19.570Z,992.13
2019-06-26T09:03:19.527Z,992.12
2019-06-26T09:04:19.497Z,992.10
2019-06-26T09:05:19.468Z,992.14
2019-06-26T09:06:19.443Z,992.08
2019-06-26T09:07:19.435Z,992.08
2019-06-26T09:08:19.452Z,992.08
2019-06-26T09:09:19.365Z,992.08
2019-06-26T09:10:19.335Z,992.04
2019-06-26T09:11:19.310Z,992.02
2019-06-26T09:12:19.304Z,992.00
2019-06-26T09:13:19.258Z,992.00
2019-06-26T09:14:19.263Z,992.00
2019-06-26T09:15:19.203Z,991.97
2019-06-26T09:16:19.170Z,991.99
2019-06-26T09:17:19.143Z,991.95
2019-06-26T09:18:34.270Z,991.93
2019-06-26T09:19:19.094Z,991.91
2019-06-26T09:20:19.065Z,991.92
2019-06-26T09:21:19.038Z,991.95
2019-06-26T09:22:27.638Z,991.92
2019-06-26T09:24:12.630Z,991.89
2019-06-26T09:25:21.711Z,991.93
2019-06-26T09:26:12.546Z,991.92
2019-06-26T09:27:14.886Z,991.95
2019-06-26T09:28:12.516Z,991.96
2019-06-26T09:29:12.468Z,991.95
2019-06-26T09:30:12.443Z,991.94
2019-06-26T09:31:12.415Z,991.96
2019-06-26T09:32:12.385Z,991.97
2019-06-26T09:33:12.362Z,992.05
2019-06-26T09:34:12.333Z,991.94
2019-06-26T09:35:12.314Z,991.99
2019-06-26T09:50:05.954Z,991.96
2019-06-26T09:51:05.895Z,991.95
2019-06-26T09:52:05.904Z,991.88
2019-06-26T09:53:05.837Z,991.89
2019-06-26T09:54:05.802Z,991.89
2019-06-26T09:55:05.770Z,991.90
2019-06-26T09:56:05.743Z,991.90
2019-06-26T09:57:05.716Z,991.97
2019-06-26T09:58:05.694Z,991.97
2019-06-26T09:59:05.656Z,991.95
2019-06-26T10:00:05.626Z,991.95
2019-06-26T10:01:05.594Z,991.99
2019-06-26T10:02:05.567Z,992.01
2019-06-26T10:03:05.540Z,992.02
2019-06-26T10:04:05.515Z,992.06
2019-06-26T10:05:05.487Z,992.02
2019-06-26T10:06:05.461Z,992.05
2019-06-26T10:07:05.431Z,992.04
2019-06-26T10:08:05.403Z,992.06
2019-06-26T10:09:05.372Z,992.06
2019-06-26T10:10:05.350Z,992.13
2019-06-26T10:11:05.321Z,992.05
2019-06-26T10:12:05.291Z,992.05
2019-06-26T10:13:05.262Z,992.09
2019-06-26T10:14:05.234Z,992.06
2019-06-26T10:15:05.211Z,992.05
2019-06-26T10:16:05.193Z,992.11
2019-06-26T10:17:05.158Z,992.11
2019-06-26T10:18:05.130Z,992.13
2019-06-26T10:19:10.283Z,992.12
2019-06-26T10:20:05.076Z,992.18
2019-06-26T10:21:05.045Z,992.15
2019-06-26T10:22:05.018Z,992.16
2019-06-26T10:23:04.990Z,992.11
2019-06-26T10:24:04.973Z,992.12
2019-06-26T10:25:04.940Z,992.14
2019-06-26T10:26:04.908Z,992.13
2019-06-26T10:27:04.882Z,992.10
2019-06-26T10:28:04.865Z,992.16
2019-06-26T10:29:04.836Z,992.15
2019-06-26T10:30:04.810Z,992.14
2019-06-26T10:31:04.777Z,992.14
2019-06-26T10:32:04.751Z,992.16
2019-06-26T10:33:04.721Z,992.12
2019-06-26T10:34:04.692Z,992.18
2019-06-26T10:35:04.719Z,992.13
2019-06-26T10:36:04.645Z,992.14
2019-06-26T10:37:04.688Z,992.18
2019-06-26T10:38:04.593Z,992.18
2019-06-26T10:39:04.561Z,992.18
2019-06-26T10:40:04.541Z,992.15
2019-06-26T10:41:04.505Z,992.17
2019-06-26T10:42:04.489Z,992.19
2019-06-26T10:43:04.458Z,992.20
2019-06-26T10:44:04.427Z,992.24
2019-06-26T10:45:04.401Z,992.23
2019-06-26T10:46:04.372Z,992.21
2019-06-26T10:47:04.347Z,992.21
2019-06-26T10:48:04.374Z,992.27
2019-06-26T10:49:04.299Z,992.25
2019-06-26T10:50:04.274Z,992.28
2019-06-26T10:51:04.242Z,992.22
2019-06-26T10:52:04.219Z,992.25
2019-06-26T10:53:04.194Z,992.28
2019-06-26T10:54:04.164Z,992.31
2019-06-26T10:55:04.147Z,992.31
2019-06-26T10:56:04.112Z,992.29
2019-06-26T10:57:04.085Z,992.28
2019-06-26T10:58:04.055Z,992.30
2019-06-26T10:59:04.028Z,992.28
2019-06-26T11:00:04.003Z,992.28
2019-06-26T11:01:04.000Z,992.27
2019-06-26T11:02:03.953Z,992.28
2019-06-26T11:03:03.932Z,992.30
2019-06-26T11:04:03.896Z,992.34
2019-06-26T11:05:03.872Z,992.30
2019-06-26T11:06:03.844Z,992.26
2019-06-26T11:07:03.818Z,992.21
2019-06-26T11:08:03.793Z,992.24
2019-06-26T11:09:03.825Z,992.20
2019-06-26T11:10:03.744Z,992.17
2019-06-26T11:11:03.718Z,992.20
2019-06-26T11:12:03.687Z,992.20
2019-06-26T11:13:03.661Z,992.19
2019-06-26T11:14:03.639Z,992.17
2019-06-26T11:15:03.614Z,992.14
2019-06-26T11:16:03.588Z,992.15
2019-06-26T11:17:03.559Z,992.18
2019-06-26T11:18:03.526Z,992.17
2019-06-26T11:19:03.499Z,992.16
2019-06-26T11:20:03.479Z,992.22
2019-06-26T11:21:03.471Z,992.16
2019-06-26T11:22:03.550Z,992.14
2019-06-26T11:23:03.429Z,992.17
2019-06-26T11:24:03.369Z,992.10
2019-06-26T11:25:03.345Z,992.19
2019-06-26T11:26:03.326Z,992.14
2019-06-26T11:27:03.447Z,992.13
2019-06-26T11:28:03.267Z,992.22
2019-06-26T11:29:03.245Z,992.18
2019-06-26T11:30:03.584Z,992.18
2019-06-26T11:31:03.186Z,992.15
2019-06-26T11:32:03.159Z,992.18
2019-06-26T11:33:03.137Z,992.13
2019-06-26T11:34:03.117Z,992.15
2019-06-26T11:35:03.093Z,992.13
2019-06-26T11:36:03.067Z,992.14
2019-06-26T11:37:04.540Z,992.20
2019-06-26T11:38:02.998Z,992.20
2019-06-26T11:39:02.973Z,992.12
2019-06-26T11:40:02.950Z,992.16
2019-06-26T11:41:02.924Z,992.12
2019-06-26T11:42:02.900Z,992.15
2019-06-26T11:43:02.943Z,992.10
2019-06-26T11:44:11.527Z,992.15
2019-06-26T11:46:07.565Z,992.08
2019-06-26T11:47:07.473Z,992.06
2019-06-26T11:48:07.494Z,992.02
2019-06-26T11:49:07.414Z,992.09
2019-06-26T11:50:07.387Z,992.06
2019-06-26T11:51:07.363Z,992.05
2019-06-26T11:52:07.442Z,992.05
2019-06-26T11:53:07.309Z,992.07
2019-06-26T11:54:07.338Z,992.11
2019-06-26T11:55:07.260Z,992.04
2019-06-26T11:56:07.234Z,992.01
2019-06-26T11:57:07.214Z,991.97
2019-06-26T11:58:07.210Z,992.00
2019-06-26T11:59:07.158Z,991.95
2019-06-26T12:00:07.128Z,992.02
2019-06-26T12:01:07.108Z,992.02
2019-06-26T12:02:07.071Z,992.00
2019-06-26T12:03:07.045Z,991.99
2019-06-26T12:04:07.020Z,991.94
2019-06-26T12:05:06.996Z,991.91
2019-06-26T12:06:17.732Z,991.94
2019-06-26T12:07:06.952Z,991.93
2019-06-26T12:08:06.917Z,991.92
2019-06-26T12:09:06.889Z,991.86
2019-06-26T12:10:06.944Z,991.85
2019-06-26T12:11:06.834Z,991.92
2019-06-26T12:12:06.810Z,991.90
2019-06-26T12:13:06.821Z,991.91
2019-06-26T12:14:06.762Z,991.88
2019-06-26T12:15:06.772Z,991.91
2019-06-26T12:16:06.708Z,991.90
2019-06-26T12:17:06.680Z,991.91
2019-06-26T12:18:06.657Z,991.89
2019-06-26T12:19:06.641Z,991.91
2019-06-26T12:20:17.851Z,991.95
2019-06-26T12:21:06.574Z,991.96
2019-06-26T12:22:06.546Z,991.95
2019-06-26T12:23:06.526Z,991.96
2019-06-26T12:24:06.533Z,991.91
2019-06-26T12:25:06.486Z,991.98
2019-06-26T12:26:06.563Z,991.96
2019-06-26T12:27:06.451Z,991.93
2019-06-26T12:28:06.393Z,991.98
2019-06-26T12:29:06.391Z,991.95
2019-06-26T12:30:06.345Z,992.00
2019-06-26T12:31:06.313Z,991.96
2019-06-26T12:32:06.359Z,991.98
2019-06-26T12:33:06.263Z,992.01
2019-06-26T12:34:06.240Z,991.99
2019-06-26T12:35:06.215Z,991.98
2019-06-26T12:36:06.197Z,991.93
2019-06-26T12:37:06.159Z,991.97
2019-06-26T12:38:06.139Z,991.97
2019-06-26T12:39:06.104Z,991.96
2019-06-26T12:40:06.082Z,991.98
2019-06-26T12:41:06.062Z,991.92
2019-06-26T12:42:06.032Z,991.97
2019-06-26T12:43:06.029Z,991.91
2019-06-26T12:44:06.127Z,991.90
2019-06-26T12:45:05.952Z,991.98
2019-06-26T12:46:05.962Z,991.90
2019-06-26T12:47:05.993Z,991.96
2019-06-26T12:48:05.878Z,991.94
2019-06-26T12:49:05.851Z,991.98
2019-06-26T12:50:05.822Z,991.91
2019-06-26T12:51:05.795Z,991.93
2019-06-26T12:52:05.767Z,991.94
2019-06-26T12:53:05.742Z,992.03
2019-06-26T12:54:05.723Z,991.95
2019-06-26T12:55:05.710Z,991.97
2019-06-26T12:56:05.679Z,991.98
2019-06-26T12:57:05.635Z,991.98
2019-06-26T12:58:13.143Z,991.96
2019-06-26T12:59:05.584Z,991.97
2019-06-26T13:00:05.560Z,991.91